Карточка аэропорта UAKD

Внимание!
Информация на этой странице в стадии наполнения.
Если вы не увидели какой-то информации, или заметили неточность - пожалуйста сообщите нам!
Спасибо!
Команда RU-STAFF
Название аэропортаЖезказган
Название аэропорта (англ.)Zhezkazgan
Превышение1250 ft. (381 m.)
Координаты47°42.618', 67°44.382'
Высота перехода10000
Эшелон переходаFL120, QNH<733:FL130
Коды ответчика0670-0673, 7274-7277
Зона ОрВДНур-Султан РПИ (UACN)
Данные METARUAKD 271030Z 05005MPS 9999 FEW004 M10/M14 Q1027 NOSIG RMK QBB120 QFE736/0981
Проноз погоды (TAF)UAKD 251654Z 2515/2624 CNL
NOTAMshow/hide NOTAM
AWOS   TABLE

Информация о ВПП

ВПП Длина ВПП (м.) Покрытие Курс ВПП Частота ILS
042600Асфальтобетон44 
222600Асфальтобетон224110.7

Диспетчерские позиции




Спутниковое изображение